createdAt,value
2019-02-10T00:01:35.325Z,100194.00
2019-02-10T00:04:04.878Z,100185.00
2019-02-10T00:06:34.827Z,100186.00
2019-02-10T00:09:04.703Z,100175.00
2019-02-10T00:11:34.181Z,100172.00
2019-02-10T00:14:03.732Z,100173.00
2019-02-10T00:16:33.164Z,100160.00
2019-02-10T00:19:02.694Z,100161.00
2019-02-10T00:21:32.207Z,100146.00
2019-02-10T00:24:01.698Z,100146.00
2019-02-10T00:26:31.213Z,100139.00
2019-02-10T00:29:00.731Z,100139.00
2019-02-10T00:31:30.243Z,100137.00
2019-02-10T00:33:59.722Z,100124.00
2019-02-10T00:36:33.444Z,100111.00
2019-02-10T00:39:01.949Z,100102.00
2019-02-10T00:41:31.422Z,100104.00
2019-02-10T00:44:00.893Z,100096.00
2019-02-10T00:46:30.397Z,100091.00
2019-02-10T00:48:59.870Z,100080.00
2019-02-10T00:51:29.386Z,100070.00
2019-02-10T00:53:58.862Z,100055.00
2019-02-10T00:56:28.487Z,100045.00
2019-02-10T00:58:57.976Z,100040.00
2019-02-10T01:01:27.448Z,100036.00
2019-02-10T01:03:57.015Z,100023.00
2019-02-10T01:06:26.441Z,100023.00
2019-02-10T01:08:56.038Z,100014.00
2019-02-10T01:11:25.644Z,100013.00
2019-02-10T01:13:55.117Z,100007.00
2019-02-10T01:16:24.619Z,100006.00
2019-02-10T01:19:03.851Z,99997.00
2019-02-10T01:21:33.570Z,99999.00
2019-02-10T01:24:03.167Z,99990.00
2019-02-10T01:26:32.808Z,99988.00
2019-02-10T01:29:02.455Z,99980.00
2019-02-10T01:31:31.945Z,99980.00
2019-02-10T01:34:01.469Z,99967.00
2019-02-10T01:36:31.105Z,99955.00
2019-02-10T01:39:00.565Z,99946.00
2019-02-10T01:41:30.089Z,99944.00
2019-02-10T01:43:59.563Z,99933.00
2019-02-10T01:46:29.023Z,99932.00
2019-02-10T01:48:58.484Z,99924.00
2019-02-10T01:51:27.947Z,99914.00
2019-02-10T01:53:57.417Z,99901.00
2019-02-10T01:56:26.937Z,99893.00
2019-02-10T01:58:56.386Z,99888.00
2019-02-10T02:01:25.843Z,99877.00
2019-02-10T02:03:55.359Z,99871.00
2019-02-10T02:06:24.863Z,99866.00
2019-02-10T02:08:54.305Z,99863.00
2019-02-10T02:11:23.751Z,99853.00
2019-02-10T02:13:53.240Z,99846.00
2019-02-10T02:16:22.665Z,99834.00
2019-02-10T02:18:52.101Z,99826.00
2019-02-10T02:21:21.578Z,99821.00
2019-02-10T02:23:51.042Z,99820.00
2019-02-10T02:26:21.137Z,99800.00
2019-02-10T02:28:50.742Z,99800.00
2019-02-10T02:31:20.214Z,99792.00
2019-02-10T02:33:49.694Z,99782.00
2019-02-10T02:36:19.316Z,99777.00
2019-02-10T02:38:48.787Z,99763.00
2019-02-10T02:41:18.213Z,99750.00
2019-02-10T02:43:47.667Z,99734.00
2019-02-10T02:46:17.119Z,99731.00
2019-02-10T02:48:46.601Z,99718.00
2019-02-10T02:51:16.037Z,99717.00
2019-02-10T02:53:45.488Z,99701.00
2019-02-10T02:56:14.958Z,99689.00
2019-02-10T02:58:44.392Z,99666.00
2019-02-10T03:01:13.864Z,99651.00
2019-02-10T03:03:43.341Z,99631.00
2019-02-10T03:06:12.762Z,99632.00
2019-02-10T03:08:42.198Z,99627.00
2019-02-10T03:11:11.696Z,99611.00
2019-02-10T03:13:41.136Z,99603.00
2019-02-10T03:16:10.860Z,99591.00
2019-02-10T03:18:40.417Z,99586.00
2019-02-10T03:21:10.082Z,99580.00
2019-02-10T03:23:39.592Z,99562.00
2019-02-10T03:26:09.107Z,99552.00
2019-02-10T03:28:38.661Z,99543.00
2019-02-10T03:31:08.459Z,99525.00
2019-02-10T03:33:37.953Z,99516.00
2019-02-10T03:36:07.557Z,99498.00
2019-02-10T03:38:37.156Z,99494.00
2019-02-10T03:41:07.077Z,99499.00
2019-02-10T03:43:36.575Z,99482.00
2019-02-10T03:46:06.021Z,99475.00
2019-02-10T03:48:35.473Z,99480.00
2019-02-10T03:51:04.966Z,99455.00
2019-02-10T03:53:34.389Z,99441.00
2019-02-10T03:56:03.822Z,99437.00
2019-02-10T03:58:33.228Z,99412.00
2019-02-10T04:01:02.675Z,99402.00
2019-02-10T04:03:32.098Z,99400.00
2019-02-10T04:06:01.546Z,99375.00
2019-02-10T04:08:31.037Z,99369.00
2019-02-10T04:11:00.501Z,99358.00
2019-02-10T04:13:30.014Z,99357.00
2019-02-10T04:15:59.475Z,99348.00
2019-02-10T04:18:28.905Z,99349.00
2019-02-10T04:20:58.310Z,99333.00
2019-02-10T04:23:27.756Z,99330.00
2019-02-10T04:25:57.186Z,99317.00
2019-02-10T04:28:26.601Z,99294.00
2019-02-10T04:30:56.052Z,99291.00
2019-02-10T04:33:25.518Z,99279.00
2019-02-10T04:35:54.988Z,99275.00
2019-02-10T04:38:24.436Z,99273.00
2019-02-10T04:40:53.881Z,99260.00
2019-02-10T04:43:23.364Z,99243.00
2019-02-10T04:45:52.804Z,99231.00
2019-02-10T04:48:22.279Z,99223.00
2019-02-10T04:50:51.753Z,99218.00
2019-02-10T04:53:21.173Z,99210.00
2019-02-10T04:56:08.889Z,99197.00
2019-02-10T04:58:38.298Z,99192.00
2019-02-10T05:01:07.811Z,99175.00
2019-02-10T05:03:37.248Z,99169.00
2019-02-10T05:06:06.735Z,99167.00
2019-02-10T05:08:36.151Z,99163.00
2019-02-10T05:11:05.673Z,99151.00
2019-02-10T05:13:35.101Z,99145.00
2019-02-10T05:16:04.668Z,99141.00
2019-02-10T05:18:34.106Z,99135.00
2019-02-10T05:21:03.540Z,99119.00
2019-02-10T05:23:32.971Z,99122.00
2019-02-10T05:26:02.437Z,99117.00
2019-02-10T05:28:31.835Z,99112.00
2019-02-10T05:31:01.261Z,99102.00
2019-02-10T05:33:30.666Z,99102.00
2019-02-10T05:36:00.093Z,99103.00
2019-02-10T05:38:29.525Z,99090.00
2019-02-10T05:40:58.957Z,99075.00
2019-02-10T05:43:28.368Z,99067.00
2019-02-10T05:45:57.785Z,99052.00
2019-02-10T05:48:27.244Z,99038.00
2019-02-10T05:50:56.734Z,99027.00
2019-02-10T05:53:26.180Z,99019.00
2019-02-10T05:55:55.675Z,99015.00
2019-02-10T05:58:25.129Z,99002.00
2019-02-10T06:00:54.562Z,98992.00
2019-02-10T06:03:24.032Z,98983.00
2019-02-10T06:05:53.473Z,98971.00
2019-02-10T06:08:22.983Z,98951.00
2019-02-10T06:10:52.452Z,98945.00
2019-02-10T06:13:21.886Z,98920.00
2019-02-10T06:15:51.350Z,98919.00
2019-02-10T06:18:20.822Z,98907.00
2019-02-10T06:20:50.260Z,98890.00
2019-02-10T06:23:19.712Z,98886.00
2019-02-10T06:25:49.172Z,98879.00
2019-02-10T06:28:18.598Z,98868.00
2019-02-10T06:30:48.038Z,98855.00
2019-02-10T06:33:17.480Z,98857.00
2019-02-10T06:35:46.921Z,98846.00
2019-02-10T06:38:22.192Z,98841.00
2019-02-10T06:40:47.541Z,98837.00
2019-02-10T06:43:16.993Z,98834.00
2019-02-10T06:45:46.449Z,98827.00
2019-02-10T06:48:15.912Z,98827.00
2019-02-10T06:50:45.361Z,98819.00
2019-02-10T06:53:14.802Z,98788.00
2019-02-10T06:55:44.297Z,98807.00
2019-02-10T06:58:13.717Z,98810.00
2019-02-10T07:01:01.152Z,98809.00
2019-02-10T07:03:42.113Z,98800.00
2019-02-10T07:06:14.088Z,98804.00
2019-02-10T07:08:43.508Z,98792.00
2019-02-10T07:11:12.949Z,98786.00
2019-02-10T07:13:48.954Z,98784.00
2019-02-10T07:16:41.493Z,98756.00
2019-02-10T07:20:05.888Z,98764.00
2019-02-10T07:22:43.016Z,98769.00
2019-02-10T07:25:20.044Z,98761.00
2019-02-10T07:28:07.027Z,98760.00
2019-02-10T07:30:53.150Z,98760.00
2019-02-10T07:33:47.987Z,98757.00
2019-02-10T07:36:47.085Z,98765.00
2019-02-10T07:39:33.007Z,98772.00
2019-02-10T07:42:21.391Z,98751.00
2019-02-10T07:44:55.404Z,98748.00
2019-02-10T07:48:05.577Z,98747.00
2019-02-10T07:51:00.382Z,98744.00
2019-02-10T07:53:55.254Z,98736.00
2019-02-10T07:56:55.171Z,98717.00
2019-02-10T08:00:07.557Z,98716.00
2019-02-10T08:02:56.177Z,98729.00
2019-02-10T08:05:39.031Z,98707.00
2019-02-10T08:08:30.167Z,98721.00
2019-02-10T08:11:20.872Z,98706.00
2019-02-10T08:14:23.314Z,98710.00
2019-02-10T08:17:09.219Z,98706.00
2019-02-10T08:20:09.874Z,98684.00
2019-02-10T08:22:58.427Z,98699.00
2019-02-10T08:26:06.768Z,98696.00
2019-02-10T08:29:07.532Z,98683.00
2019-02-10T08:32:22.327Z,98672.00
2019-02-10T08:35:01.931Z,98666.00
2019-02-10T08:37:47.583Z,98655.00
2019-02-10T08:40:27.350Z,98659.00
2019-02-10T08:43:23.961Z,98649.00
2019-02-10T08:46:21.793Z,98639.00
2019-02-10T08:49:12.250Z,98635.00
2019-02-10T08:52:02.804Z,98640.00
2019-02-10T08:54:32.230Z,98648.00
2019-02-10T08:57:01.710Z,98653.00
2019-02-10T08:59:31.172Z,98644.00
2019-02-10T09:02:00.585Z,98631.00
2019-02-10T09:04:30.015Z,98641.00
2019-02-10T09:06:59.424Z,98645.00
2019-02-10T09:09:28.819Z,98629.00
2019-02-10T09:11:58.307Z,98635.00
2019-02-10T09:14:27.718Z,98634.00
2019-02-10T09:16:57.120Z,98621.00
2019-02-10T09:19:26.563Z,98622.00
2019-02-10T09:21:55.963Z,98631.00
2019-02-10T09:24:25.369Z,98622.00
2019-02-10T09:26:54.787Z,98605.00
2019-02-10T09:29:24.258Z,98613.00
2019-02-10T09:31:53.669Z,98614.00
2019-02-10T09:34:23.098Z,98614.00
2019-02-10T09:36:52.497Z,98608.00
2019-02-10T09:39:21.932Z,98594.00
2019-02-10T09:41:51.361Z,98593.00
2019-02-10T09:44:20.764Z,98590.00
2019-02-10T09:46:50.184Z,98587.00
2019-02-10T09:49:19.605Z,98593.00
2019-02-10T09:51:49.015Z,98597.00
2019-02-10T09:54:18.409Z,98582.00
2019-02-10T09:56:47.837Z,98583.00
2019-02-10T09:59:17.242Z,98588.00
2019-02-10T10:01:46.722Z,98579.00
2019-02-10T10:04:16.136Z,98579.00
2019-02-10T10:06:45.536Z,98579.00
2019-02-10T10:09:19.275Z,98581.00
2019-02-10T10:11:46.170Z,98594.00
2019-02-10T10:14:15.603Z,98593.00
2019-02-10T10:16:48.194Z,98591.00
2019-02-10T10:19:17.655Z,98608.00
2019-02-10T10:21:47.091Z,98604.00
2019-02-10T10:24:16.519Z,98607.00
2019-02-10T10:26:47.492Z,98605.00
2019-02-10T10:29:16.940Z,98591.00
2019-02-10T10:31:46.360Z,98607.00
2019-02-10T10:34:15.837Z,98620.00
2019-02-10T10:36:45.364Z,98613.00
2019-02-10T10:39:14.819Z,98620.00
2019-02-10T10:41:44.357Z,98614.00
2019-02-10T10:44:13.833Z,98612.00
2019-02-10T10:46:43.287Z,98626.00
2019-02-10T10:49:12.761Z,98627.00
2019-02-10T10:51:42.253Z,98629.00
2019-02-10T10:54:11.722Z,98631.00
2019-02-10T10:56:41.252Z,98652.00
2019-02-10T10:59:12.255Z,98656.00
2019-02-10T11:01:41.809Z,98648.00
2019-02-10T11:04:11.343Z,98655.00
2019-02-10T11:06:40.768Z,98654.00
2019-02-10T11:09:10.303Z,98654.00
2019-02-10T11:11:40.691Z,98649.00
2019-02-10T11:14:10.216Z,98636.00
2019-02-10T11:16:39.748Z,98646.00
2019-02-10T11:19:09.198Z,98644.00
2019-02-10T11:21:38.650Z,98653.00
2019-02-10T11:24:08.111Z,98650.00
2019-02-10T11:26:37.544Z,98655.00
2019-02-10T11:29:06.991Z,98648.00
2019-02-10T11:31:36.462Z,98658.00
2019-02-10T11:34:05.905Z,98644.00
2019-02-10T11:36:35.349Z,98645.00
2019-02-10T11:39:06.436Z,98663.00
2019-02-10T11:41:35.887Z,98663.00
2019-02-10T11:44:05.379Z,98658.00
2019-02-10T11:46:34.927Z,98672.00
2019-02-10T11:49:04.386Z,98676.00
2019-02-10T11:51:33.847Z,98665.00
2019-02-10T11:54:04.709Z,98665.00
2019-02-10T11:56:34.309Z,98665.00
2019-02-10T11:59:04.034Z,98670.00
2019-02-10T12:01:33.488Z,98668.00
2019-02-10T12:04:02.927Z,98660.00
2019-02-10T12:06:32.444Z,98663.00
2019-02-10T12:09:01.879Z,98667.00
2019-02-10T12:11:31.334Z,98671.00
2019-02-10T12:14:00.794Z,98669.00
2019-02-10T12:16:30.322Z,98667.00
2019-02-10T12:18:59.777Z,98669.00
2019-02-10T12:21:29.259Z,98679.00
2019-02-10T12:23:58.707Z,98681.00
2019-02-10T12:26:28.146Z,98683.00
2019-02-10T12:28:57.626Z,98669.00
2019-02-10T12:31:27.142Z,98672.00
2019-02-10T12:33:56.666Z,98677.00
2019-02-10T12:36:26.110Z,98673.00
2019-02-10T12:38:55.603Z,98668.00
2019-02-10T12:41:25.036Z,98675.00
2019-02-10T12:43:54.503Z,98674.00
2019-02-10T12:46:23.996Z,98680.00
2019-02-10T12:48:53.499Z,98690.00
2019-02-10T12:51:22.957Z,98681.00
2019-02-10T12:53:52.371Z,98676.00
2019-02-10T12:56:21.821Z,98670.00
2019-02-10T12:58:51.277Z,98670.00
2019-02-10T13:01:20.792Z,98669.00
2019-02-10T13:03:50.261Z,98666.00
2019-02-10T13:06:19.716Z,98668.00
2019-02-10T13:08:49.154Z,98665.00
2019-02-10T13:11:18.690Z,98666.00
2019-02-10T13:13:48.089Z,98675.00
2019-02-10T13:16:17.604Z,98665.00
2019-02-10T13:18:47.197Z,98669.00
2019-02-10T13:21:16.719Z,98676.00
2019-02-10T13:23:46.196Z,98682.00
2019-02-10T13:26:15.651Z,98681.00
2019-02-10T13:28:44.937Z,98666.00
2019-02-10T13:31:14.506Z,98672.00
2019-02-10T13:33:43.923Z,98666.00
2019-02-10T13:36:13.399Z,98675.00
2019-02-10T13:38:42.890Z,98676.00
2019-02-10T13:41:12.358Z,98674.00
2019-02-10T13:43:41.829Z,98670.00
2019-02-10T13:46:11.285Z,98674.00
2019-02-10T13:48:42.367Z,98669.00
2019-02-10T13:51:11.880Z,98682.00
2019-02-10T13:53:41.286Z,98682.00
2019-02-10T13:56:10.715Z,98677.00
2019-02-10T13:58:41.088Z,98669.00
2019-02-10T14:01:11.065Z,98675.00
2019-02-10T14:03:40.509Z,98674.00
2019-02-10T14:06:10.435Z,98675.00
2019-02-10T14:08:39.860Z,98669.00
2019-02-10T14:11:09.293Z,98672.00
2019-02-10T14:13:38.820Z,98669.00
2019-02-10T14:16:08.238Z,98665.00
2019-02-10T14:18:37.694Z,98659.00
2019-02-10T14:21:07.183Z,98676.00
2019-02-10T14:23:36.630Z,98675.00
2019-02-10T14:26:06.066Z,98680.00
2019-02-10T14:28:35.753Z,98676.00
2019-02-10T14:31:05.282Z,98678.00
2019-02-10T14:33:38.884Z,98681.00
2019-02-10T14:36:06.223Z,98675.00
2019-02-10T14:38:36.559Z,98691.00
2019-02-10T14:41:06.396Z,98680.00
2019-02-10T14:43:36.060Z,98687.00
2019-02-10T14:46:05.777Z,98688.00
2019-02-10T14:48:35.355Z,98692.00
2019-02-10T14:51:04.842Z,98687.00
2019-02-10T14:53:34.388Z,98694.00
2019-02-10T14:56:03.802Z,98695.00
2019-02-10T14:58:33.224Z,98697.00
2019-02-10T15:01:02.703Z,98695.00
2019-02-10T15:03:32.117Z,98707.00
2019-02-10T15:06:01.525Z,98701.00
2019-02-10T15:08:30.938Z,98705.00
2019-02-10T15:11:00.356Z,98714.00
2019-02-10T15:13:29.798Z,98732.00
2019-02-10T15:15:59.203Z,98732.00
2019-02-10T15:18:28.602Z,98741.00
2019-02-10T15:20:58.035Z,98745.00
2019-02-10T15:23:27.443Z,98736.00
2019-02-10T15:25:56.857Z,98745.00
2019-02-10T15:28:26.292Z,98770.00
2019-02-10T15:30:55.702Z,98759.00
2019-02-10T15:33:25.142Z,98770.00
2019-02-10T15:35:54.537Z,98779.00
2019-02-10T15:38:23.949Z,98787.00
2019-02-10T15:40:53.374Z,98795.00
2019-02-10T15:43:22.951Z,98815.00
2019-02-10T15:45:52.566Z,98794.00
2019-02-10T15:48:22.056Z,98794.00
2019-02-10T15:50:51.642Z,98802.00
2019-02-10T15:53:21.106Z,98810.00
2019-02-10T15:55:50.590Z,98806.00
2019-02-10T15:58:20.040Z,98814.00
2019-02-10T16:00:49.502Z,98813.00
2019-02-10T16:03:18.998Z,98830.00
2019-02-10T16:05:48.610Z,98809.00
2019-02-10T16:08:18.076Z,98843.00
2019-02-10T16:10:47.614Z,98834.00
2019-02-10T16:13:17.159Z,98836.00
2019-02-10T16:15:46.643Z,98830.00
2019-02-10T16:18:16.048Z,98840.00
2019-02-10T16:20:45.543Z,98845.00
2019-02-10T16:23:15.080Z,98840.00
2019-02-10T16:25:44.544Z,98846.00
2019-02-10T16:28:14.137Z,98846.00
2019-02-10T16:30:43.594Z,98845.00
2019-02-10T16:33:13.063Z,98854.00
2019-02-10T16:35:42.650Z,98862.00
2019-02-10T16:38:12.069Z,98869.00
2019-02-10T16:40:41.616Z,98864.00
2019-02-10T16:43:11.106Z,98856.00
2019-02-10T16:45:40.548Z,98870.00
2019-02-10T16:48:09.989Z,98877.00
2019-02-10T16:50:39.540Z,98889.00
2019-02-10T16:53:08.996Z,98895.00
2019-02-10T16:55:38.487Z,98893.00
2019-02-10T16:58:07.969Z,98895.00
2019-02-10T17:00:37.590Z,98898.00
2019-02-10T17:03:07.829Z,98909.00
2019-02-10T17:05:37.415Z,98915.00
2019-02-10T17:08:06.922Z,98908.00
2019-02-10T17:10:36.398Z,98918.00
2019-02-10T17:13:05.819Z,98927.00
2019-02-10T17:15:35.289Z,98939.00
2019-02-10T17:18:04.728Z,98932.00
2019-02-10T17:20:34.153Z,98959.00
2019-02-10T17:23:03.594Z,98944.00
2019-02-10T17:25:33.026Z,98956.00
2019-02-10T17:28:02.475Z,98975.00
2019-02-10T17:30:31.944Z,98972.00
2019-02-10T17:33:01.510Z,98977.00
2019-02-10T17:35:30.959Z,98977.00
2019-02-10T17:38:00.434Z,98996.00
2019-02-10T17:40:37.348Z,98995.00
2019-02-10T17:43:06.795Z,99006.00
2019-02-10T17:45:36.293Z,99018.00
2019-02-10T17:48:05.714Z,99022.00
2019-02-10T17:50:35.169Z,99044.00
2019-02-10T17:53:04.597Z,99052.00
2019-02-10T17:55:34.040Z,99049.00
2019-02-10T17:58:04.064Z,99062.00
2019-02-10T18:00:35.206Z,99058.00
2019-02-10T18:03:04.695Z,99078.00
2019-02-10T18:05:34.210Z,99089.00
2019-02-10T18:08:03.685Z,99091.00
2019-02-10T18:10:33.179Z,99091.00
2019-02-10T18:13:02.617Z,99092.00
2019-02-10T18:15:48.839Z,99100.00
2019-02-10T18:18:28.693Z,99116.00
2019-02-10T18:21:02.638Z,99116.00
2019-02-10T18:23:36.378Z,99121.00
2019-02-10T18:26:10.472Z,99130.00
2019-02-10T18:28:41.572Z,99142.00
2019-02-10T18:31:12.627Z,99158.00
2019-02-10T18:33:43.715Z,99159.00
2019-02-10T18:36:17.798Z,99167.00
2019-02-10T18:38:54.415Z,99172.00
2019-02-10T18:41:28.168Z,99180.00
2019-02-10T18:44:02.220Z,99186.00
2019-02-10T18:46:41.871Z,99185.00
2019-02-10T18:49:24.751Z,99207.00
2019-02-10T18:52:12.321Z,99214.00
2019-02-10T18:54:58.696Z,99215.00
2019-02-10T18:57:35.610Z,99234.00
2019-02-10T19:00:19.594Z,99249.00
2019-02-10T19:02:59.781Z,99247.00
2019-02-10T19:05:30.905Z,99253.00
2019-02-10T19:08:01.966Z,99270.00
2019-02-10T19:10:33.059Z,99275.00
2019-02-10T19:13:04.163Z,99286.00
2019-02-10T19:15:44.234Z,99292.00
2019-02-10T19:18:15.360Z,99299.00
2019-02-10T19:20:55.516Z,99318.00
2019-02-10T19:23:26.635Z,99319.00
2019-02-10T19:26:03.619Z,99333.00
2019-02-10T19:28:34.698Z,99344.00
2019-02-10T19:31:08.446Z,99345.00
2019-02-10T19:33:48.467Z,99357.00
2019-02-10T19:36:19.538Z,99358.00
2019-02-10T19:38:59.616Z,99361.00
2019-02-10T19:41:30.689Z,99378.00
2019-02-10T19:44:01.760Z,99393.00
2019-02-10T19:46:35.696Z,99408.00
2019-02-10T19:49:18.765Z,99417.00
2019-02-10T19:52:01.985Z,99419.00
2019-02-10T19:54:41.700Z,99433.00
2019-02-10T19:57:28.985Z,99435.00
2019-02-10T20:00:08.880Z,99461.00
2019-02-10T20:02:55.005Z,99459.00
2019-02-10T20:05:28.783Z,99480.00
2019-02-10T20:08:05.639Z,99489.00
2019-02-10T20:10:48.414Z,99500.00
2019-02-10T20:13:19.511Z,99509.00
2019-02-10T20:15:59.446Z,99516.00
2019-02-10T20:18:42.613Z,99532.00
2019-02-10T20:21:29.589Z,99539.00
2019-02-10T20:24:00.688Z,99563.00
2019-02-10T20:26:40.414Z,99557.00
2019-02-10T20:29:27.785Z,99575.00
2019-02-10T20:32:14.793Z,99590.00
2019-02-10T20:34:45.893Z,99585.00
2019-02-10T20:37:16.977Z,99619.00
2019-02-10T20:39:48.020Z,99627.00
2019-02-10T20:42:21.922Z,99643.00
2019-02-10T20:44:52.994Z,99638.00
2019-02-10T20:47:29.985Z,99643.00
2019-02-10T20:50:01.051Z,99662.00
2019-02-10T20:52:45.088Z,99670.00
2019-02-10T20:55:13.520Z,99674.00
2019-02-10T20:57:56.512Z,99692.00
2019-02-10T21:00:30.212Z,99713.00
2019-02-10T21:03:01.304Z,99715.00
2019-02-10T21:05:32.383Z,99730.00
2019-02-10T21:11:17.479Z,99754.00
2019-02-10T21:13:51.119Z,99763.00
2019-02-10T21:16:34.352Z,99760.00
2019-02-10T21:19:23.479Z,99786.00
2019-02-10T21:21:54.558Z,99798.00
2019-02-10T21:24:43.553Z,99807.00
2019-02-10T21:27:17.063Z,99807.00
2019-02-10T21:29:53.725Z,99820.00
2019-02-10T21:32:24.791Z,99831.00
2019-02-10T21:34:55.840Z,99827.00
2019-02-10T21:37:32.903Z,99841.00
2019-02-10T21:40:06.476Z,99851.00
2019-02-10T21:42:40.127Z,99863.00
2019-02-10T21:45:17.084Z,99865.00
2019-02-10T21:47:50.790Z,99873.00
2019-02-10T21:50:20.266Z,99884.00
2019-02-10T21:52:49.686Z,99891.00
2019-02-10T21:55:19.081Z,99893.00
2019-02-10T21:57:48.495Z,99899.00
2019-02-10T22:00:17.893Z,99918.00
2019-02-10T22:02:47.305Z,99923.00
2019-02-10T22:05:16.699Z,99923.00
2019-02-10T22:07:46.139Z,99931.00
2019-02-10T22:10:15.536Z,99939.00
2019-02-10T22:12:45.097Z,99949.00
2019-02-10T22:15:14.789Z,99954.00
2019-02-10T22:17:44.219Z,99962.00
2019-02-10T22:20:13.729Z,99966.00
2019-02-10T22:22:43.272Z,99968.00
2019-02-10T22:25:13.428Z,99973.00
2019-02-10T22:27:42.846Z,99993.00
2019-02-10T22:30:15.673Z,99996.00
2019-02-10T22:32:45.166Z,100004.00
2019-02-10T22:35:14.684Z,100002.00
2019-02-10T22:37:44.137Z,100015.00
2019-02-10T22:40:13.764Z,100026.00
2019-02-10T22:42:45.772Z,100025.00
2019-02-10T22:45:14.500Z,100035.00
2019-02-10T22:47:43.953Z,100048.00
2019-02-10T22:50:14.988Z,100053.00
2019-02-10T22:52:44.586Z,100065.00
2019-02-10T22:55:14.084Z,100064.00
2019-02-10T22:57:43.525Z,100080.00
2019-02-10T23:00:49.164Z,100082.00
2019-02-10T23:03:18.760Z,100095.00
2019-02-10T23:05:48.600Z,100099.00
2019-02-10T23:08:18.122Z,100106.00
2019-02-10T23:10:47.731Z,100114.00
2019-02-10T23:13:17.310Z,100124.00
2019-02-10T23:15:46.753Z,100140.00
2019-02-10T23:18:16.259Z,100142.00
2019-02-10T23:20:45.963Z,100151.00
2019-02-10T23:23:15.426Z,100156.00
2019-02-10T23:25:45.091Z,100170.00
2019-02-10T23:28:14.640Z,100172.00
2019-02-10T23:30:44.222Z,100165.00
2019-02-10T23:33:13.771Z,100183.00
2019-02-10T23:35:43.415Z,100193.00
2019-02-10T23:38:13.038Z,100200.00
2019-02-10T23:40:42.533Z,100212.00
2019-02-10T23:43:11.969Z,100224.00
2019-02-10T23:45:41.383Z,100233.00
2019-02-10T23:48:10.816Z,100234.00
2019-02-10T23:50:40.272Z,100236.00
2019-02-10T23:53:09.717Z,100245.00
2019-02-10T23:55:39.184Z,100253.00
2019-02-10T23:58:08.663Z,100260.00
